Toyomasa Maru — JJ3927 — position and weather

sailwx.info

Track history (hours):
 
Tides and Currents Weather Stations Pressure Air Temp Water Temp Dewpoint Dewpoint Depression Visibility Wind Speed Wind Dir Waves Ship Positions

Toyomasa Maru

Last reported at 2014-Jul-24 05:33 UTC. Time now 2014-Jul-25 06:47 UTC.
Position N 34°07' E 135°07'.

Length 101 m; draft 4.3 m.

Type: Tanker. MMSI: 431300401.

Date/timePositionNaut miles runAvg speedWind from/ knotsBaromVisibWave heightAir tempDewpointWater temp
2014-Jul-24 05:33N 34°07' E 135°07'1 0.1
2014-Jul-23 21:09N 34°08' E 135°07'0 0.0
2014-Jul-23 20:27N 34°08' E 135°07'0 0.0
2014-Jul-23 19:09N 34°08' E 135°07'0 0.0
2014-Jul-23 18:33N 34°08' E 135°07'0 0.0
2014-Jul-23 17:27N 34°08' E 135°07'0 0.0
2014-Jul-23 16:24N 34°08' E 135°07'0 0.1
2014-Jul-23 15:33N 34°08' E 135°07'0 0.0
2014-Jul-23 14:33N 34°08' E 135°07'0 0.0
2014-Jul-23 13:30N 34°08' E 135°07'0 0.0
2014-Jul-23 12:33N 34°08' E 135°07'9 8.9
2014-Jul-23 11:33N 34°15' E 135°00'1110.8
2014-Jul-23 10:33N 34°25' E 135°01'1111.0
2014-Jul-23 09:33N 34°36' E 135°02'5 0.1
2014-Jul-21 10:32N 34°36' E 134°56'1010.5
2014-Jul-21 09:33N 34°38' E 135°08'0 0.1
2014-Jul-21 08:20N 34°39' E 135°08'0 0.0
2014-Jul-21 07:26N 34°39' E 135°08'0 0.0
2014-Jul-21 06:20N 34°39' E 135°08'0 0.0
2014-Jul-21 05:32N 34°39' E 135°08'0 0.0
2014-Jul-21 04:33N 34°39' E 135°08'1 0.9
2014-Jul-21 03:29N 34°38' E 135°08'0 0.0
2014-Jul-21 02:23N 34°38' E 135°08'0 0.0
2014-Jul-21 01:11N 34°38' E 135°09'0 0.0
2014-Jul-21 00:23N 34°38' E 135°09'0 0.0
2014-Jul-20 23:23N 34°38' E 135°09'3 3.8
2014-Jul-20 22:33N 34°35' E 135°07'1312.4
2014-Jul-20 21:32N 34°23' E 135°02'1211.9
2014-Jul-20 20:33N 34°11' E 134°59'230 4.6
2014-Jul-18 18:21N 34°59' E 139°33'1113.5
2014-Jul-18 17:33N 35°07' E 139°43'1212.3
2014-Jul-18 16:34N 35°19' E 139°43'1212.1
2014-Jul-18 15:33N 35°29' E 139°51'8 8.3
2014-Jul-18 14:33N 35°28' E 140°01'0 0.0
2014-Jul-18 13:33N 35°28' E 140°01'0 0.0
2014-Jul-18 12:32N 35°28' E 140°01'0 0.0
2014-Jul-18 11:32N 35°28' E 140°01'0 0.0
2014-Jul-18 10:29N 35°28' E 140°01'0 0.0
2014-Jul-18 09:32N 35°28' E 140°01'0 0.0
2014-Jul-18 08:33N 35°28' E 140°01'4 4.5
2014-Jul-18 07:33N 35°29' E 139°56'0 0.1
2014-Jul-18 06:31N 35°29' E 139°56'0 0.0
2014-Jul-18 05:28N 35°29' E 139°56'1 0.6
2014-Jul-18 04:33N 35°29' E 139°56'3 3.2
2014-Jul-18 03:34N 35°28' E 139°60'0 0.0
2014-Jul-18 02:33N 35°28' E 139°60'0 0.0
2014-Jul-18 01:33N 35°28' E 139°60'0 0.0
2014-Jul-18 00:33N 35°28' E 139°60'0 0.1
2014-Jul-17 23:33N 35°28' E 139°60'4 4.1
2014-Jul-17 22:32N 35°29' E 139°55'0 0.0
2014-Jul-17 21:32N 35°29' E 139°55'0 0.0
2014-Jul-17 20:26N 35°29' E 139°55'0 0.0
2014-Jul-17 19:32N 35°29' E 139°55'0 0.0
2014-Jul-17 18:32N 35°29' E 139°55'0 0.0
2014-Jul-17 17:29N 35°29' E 139°55'1010.4
2014-Jul-17 16:34N 35°23' E 139°46'1111.3
2014-Jul-17 15:34N 35°12' E 139°47'1212.1
2014-Jul-17 14:33N 35°01' E 139°40'23410.9
2014-Jul-16 17:10N 34°07' E 135°04'3 4.5
2014-Jul-16 16:32N 34°07' E 135°07'0 0.0
2014-Jul-16 09:33N 34°07' E 135°07'9 9.3
2014-Jul-16 08:33N 34°14' E 135°00'1313.1
2014-Jul-16 07:33N 34°27' E 135°04'1212.0
2014-Jul-16 06:34N 34°38' E 135°09'0 0.1
2014-Jul-16 05:33N 34°39' E 135°08'0 0.0
2014-Jul-16 04:29N 34°39' E 135°08'0 0.0
2014-Jul-16 03:23N 34°39' E 135°08'0 0.0
2014-Jul-16 02:29N 34°39' E 135°08'0 0.0
2014-Jul-16 01:17N 34°39' E 135°08'0 0.0
2014-Jul-16 00:29N 34°39' E 135°08'0 0.0
2014-Jul-15 23:17N 34°39' E 135°08'0 0.2
2014-Jul-15 22:33N 34°38' E 135°08'0 0.5
2014-Jul-15 21:32N 34°38' E 135°08'0 0.1
2014-Jul-15 20:32N 34°38' E 135°08'1111.5
2014-Jul-15 19:32N 34°27' E 135°04'1311.6
2014-Jul-15 18:24N 34°14' E 134°59'1112.9
2014-Jul-15 17:33N 34°04' E 134°60'23510.7
2014-Jul-14 19:33N 35°02' E 139°36'1313.2
2014-Jul-14 18:33N 35°12' E 139°46'1111.3
2014-Jul-14 17:33N 35°23' E 139°43'7 7.1
2014-Jul-14 16:33N 35°30' E 139°45'0 0.0
2014-Jul-14 15:33N 35°30' E 139°45'0 0.0
2014-Jul-14 14:32N 35°30' E 139°45'0 0.0
2014-Jul-14 11:26N 35°30' E 139°45'0 0.0
2014-Jul-14 10:20N 35°30' E 139°45'0 0.0
2014-Jul-14 09:27N 35°30' E 139°45'3 3.7
2014-Jul-14 08:33N 35°28' E 139°43'4 3.5
2014-Jul-14 07:32N 35°24' E 139°45'0 0.0
2014-Jul-14 06:29N 35°24' E 139°45'0 0.2
2014-Jul-14 05:33N 35°24' E 139°45'  
Track history (hours):
 
Tides and Currents Weather Stations Pressure Air Temp Water Temp Dewpoint Dewpoint Depression Visibility Wind Speed Wind Dir Waves Ship Positions

Toyomasa Maru

Last reported at 2014-Jul-24 05:33 UTC. Time now 2014-Jul-25 06:47 UTC.
Position N 34°07' E 135°07'.

Length 101 m; draft 4.3 m.

Type: Tanker. MMSI: 431300401.

Date/timePositionNaut miles runAvg speedWind from/ knotsBaromVisibWave heightAir tempDewpointWater temp
2014-Jul-24 05:33N 34°07' E 135°07'1 0.1
2014-Jul-23 21:09N 34°08' E 135°07'0 0.0
2014-Jul-23 20:27N 34°08' E 135°07'0 0.0
2014-Jul-23 19:09N 34°08' E 135°07'0 0.0
2014-Jul-23 18:33N 34°08' E 135°07'0 0.0
2014-Jul-23 17:27N 34°08' E 135°07'0 0.0
2014-Jul-23 16:24N 34°08' E 135°07'0 0.1
2014-Jul-23 15:33N 34°08' E 135°07'0 0.0
2014-Jul-23 14:33N 34°08' E 135°07'0 0.0
2014-Jul-23 13:30N 34°08' E 135°07'0 0.0
2014-Jul-23 12:33N 34°08' E 135°07'9 8.9
2014-Jul-23 11:33N 34°15' E 135°00'1110.8
2014-Jul-23 10:33N 34°25' E 135°01'1111.0
2014-Jul-23 09:33N 34°36' E 135°02'5 0.1
2014-Jul-21 10:32N 34°36' E 134°56'1010.5
2014-Jul-21 09:33N 34°38' E 135°08'0 0.1
2014-Jul-21 08:20N 34°39' E 135°08'0 0.0
2014-Jul-21 07:26N 34°39' E 135°08'0 0.0
2014-Jul-21 06:20N 34°39' E 135°08'0 0.0
2014-Jul-21 05:32N 34°39' E 135°08'0 0.0
2014-Jul-21 04:33N 34°39' E 135°08'1 0.9
2014-Jul-21 03:29N 34°38' E 135°08'0 0.0
2014-Jul-21 02:23N 34°38' E 135°08'0 0.0
2014-Jul-21 01:11N 34°38' E 135°09'0 0.0
2014-Jul-21 00:23N 34°38' E 135°09'0 0.0
2014-Jul-20 23:23N 34°38' E 135°09'3 3.8
2014-Jul-20 22:33N 34°35' E 135°07'1312.4
2014-Jul-20 21:32N 34°23' E 135°02'1211.9
2014-Jul-20 20:33N 34°11' E 134°59'230 4.6
2014-Jul-18 18:21N 34°59' E 139°33'1113.5
2014-Jul-18 17:33N 35°07' E 139°43'1212.3
2014-Jul-18 16:34N 35°19' E 139°43'1212.1
2014-Jul-18 15:33N 35°29' E 139°51'8 8.3
2014-Jul-18 14:33N 35°28' E 140°01'0 0.0
2014-Jul-18 13:33N 35°28' E 140°01'0 0.0
2014-Jul-18 12:32N 35°28' E 140°01'0 0.0
2014-Jul-18 11:32N 35°28' E 140°01'0 0.0
2014-Jul-18 10:29N 35°28' E 140°01'0 0.0
2014-Jul-18 09:32N 35°28' E 140°01'0 0.0
2014-Jul-18 08:33N 35°28' E 140°01'4 4.5
2014-Jul-18 07:33N 35°29' E 139°56'0 0.1
2014-Jul-18 06:31N 35°29' E 139°56'0 0.0
2014-Jul-18 05:28N 35°29' E 139°56'1 0.6
2014-Jul-18 04:33N 35°29' E 139°56'3 3.2
2014-Jul-18 03:34N 35°28' E 139°60'0 0.0
2014-Jul-18 02:33N 35°28' E 139°60'0 0.0
2014-Jul-18 01:33N 35°28' E 139°60'0 0.0
2014-Jul-18 00:33N 35°28' E 139°60'0 0.1
2014-Jul-17 23:33N 35°28' E 139°60'4 4.1
2014-Jul-17 22:32N 35°29' E 139°55'0 0.0
2014-Jul-17 21:32N 35°29' E 139°55'0 0.0
2014-Jul-17 20:26N 35°29' E 139°55'0 0.0
2014-Jul-17 19:32N 35°29' E 139°55'0 0.0
2014-Jul-17 18:32N 35°29' E 139°55'0 0.0
2014-Jul-17 17:29N 35°29' E 139°55'1010.4
2014-Jul-17 16:34N 35°23' E 139°46'1111.3
2014-Jul-17 15:34N 35°12' E 139°47'1212.1
2014-Jul-17 14:33N 35°01' E 139°40'23410.9
2014-Jul-16 17:10N 34°07' E 135°04'3 4.5
2014-Jul-16 16:32N 34°07' E 135°07'0 0.0
2014-Jul-16 09:33N 34°07' E 135°07'9 9.3
2014-Jul-16 08:33N 34°14' E 135°00'1313.1
2014-Jul-16 07:33N 34°27' E 135°04'1212.0
2014-Jul-16 06:34N 34°38' E 135°09'0 0.1
2014-Jul-16 05:33N 34°39' E 135°08'0 0.0
2014-Jul-16 04:29N 34°39' E 135°08'0 0.0
2014-Jul-16 03:23N 34°39' E 135°08'0 0.0
2014-Jul-16 02:29N 34°39' E 135°08'0 0.0
2014-Jul-16 01:17N 34°39' E 135°08'0 0.0
2014-Jul-16 00:29N 34°39' E 135°08'0 0.0
2014-Jul-15 23:17N 34°39' E 135°08'0 0.2
2014-Jul-15 22:33N 34°38' E 135°08'0 0.5
2014-Jul-15 21:32N 34°38' E 135°08'0 0.1
2014-Jul-15 20:32N 34°38' E 135°08'1111.5
2014-Jul-15 19:32N 34°27' E 135°04'1311.6
2014-Jul-15 18:24N 34°14' E 134°59'1112.9
2014-Jul-15 17:33N 34°04' E 134°60'23510.7
2014-Jul-14 19:33N 35°02' E 139°36'1313.2
2014-Jul-14 18:33N 35°12' E 139°46'1111.3
2014-Jul-14 17:33N 35°23' E 139°43'7 7.1
2014-Jul-14 16:33N 35°30' E 139°45'0 0.0
2014-Jul-14 15:33N 35°30' E 139°45'0 0.0
2014-Jul-14 14:32N 35°30' E 139°45'0 0.0
2014-Jul-14 11:26N 35°30' E 139°45'0 0.0
2014-Jul-14 10:20N 35°30' E 139°45'0 0.0
2014-Jul-14 09:27N 35°30' E 139°45'3 3.7
2014-Jul-14 08:33N 35°28' E 139°43'4 3.5
2014-Jul-14 07:32N 35°24' E 139°45'0 0.0
2014-Jul-14 06:29N 35°24' E 139°45'0 0.2
2014-Jul-14 05:33N 35°24' E 139°45'  

Dump ship's entire track history